Lyttelton, New Zealand
Current Conditions -  °F | °C
As of 6:00 PM on Saturday 29 Nov 2014 (Local Time) from NZCH Reporting Station
Clear Clear  
Wind Chill: 64°   Ceiling: Unl
Heat Index: 64°   Visibility: 6mi
Dew Point: 27°   Wind: 25mph
Humidity: 24%   Direction: 310°NW
Pressure: 29.41"   Gusts: 38mph
Location:  43.6°S, 172.72°E
Report Text: NZCH 290600Z AUTO 31022G33KT 9999 NCD 18/M03 Q0996 NOSIG
Loading
Personal Weather Stations






























Interactive Weather Map New forecast layout! Learn more

10-Day Weather Forecast

Advertisements
Track Severe Weather on mobile